sensor_id;sensor_type;location;lat;lon;timestamp;temperature;humidity
21752;DHT22;11038;50.940;20.564;2022-08-19T00:00:56;21.50;99.90
21752;DHT22;11038;50.940;20.564;2022-08-19T00:02:28;21.50;99.90
21752;DHT22;11038;50.940;20.564;2022-08-19T00:04:05;21.40;99.90
21752;DHT22;11038;50.940;20.564;2022-08-19T00:05:38;21.50;99.90
21752;DHT22;11038;50.940;20.564;2022-08-19T00:07:14;21.50;99.90
21752;DHT22;11038;50.940;20.564;2022-08-19T00:08:46;21.40;99.90
21752;DHT22;11038;50.940;20.564;2022-08-19T00:10:19;21.40;99.90
21752;DHT22;11038;50.940;20.564;2022-08-19T00:11:52;21.40;99.90
21752;DHT22;11038;50.940;20.564;2022-08-19T00:13:27;21.40;99.90
21752;DHT22;11038;50.940;20.564;2022-08-19T00:15:00;21.40;99.90
21752;DHT22;11038;50.940;20.564;2022-08-19T00:16:32;21.40;99.90
21752;DHT22;11038;50.940;20.564;2022-08-19T00:18:04;21.40;99.90
21752;DHT22;11038;50.940;20.564;2022-08-19T00:19:37;21.40;99.90
21752;DHT22;11038;50.940;20.564;2022-08-19T00:21:09;21.40;99.90
21752;DHT22;11038;50.940;20.564;2022-08-19T00:22:41;21.40;99.90
21752;DHT22;11038;50.940;20.564;2022-08-19T00:24:14;21.40;99.90
21752;DHT22;11038;50.940;20.564;2022-08-19T00:25:47;21.40;99.90
21752;DHT22;11038;50.940;20.564;2022-08-19T00:27:19;21.40;99.90
21752;DHT22;11038;50.940;20.564;2022-08-19T00:28:58;21.40;99.90
21752;DHT22;11038;50.940;20.564;2022-08-19T00:30:31;21.50;99.90
21752;DHT22;11038;50.940;20.564;2022-08-19T00:32:04;21.40;99.90
21752;DHT22;11038;50.940;20.564;2022-08-19T00:33:41;21.40;99.90
21752;DHT22;11038;50.940;20.564;2022-08-19T00:35:14;21.50;99.90
21752;DHT22;11038;50.940;20.564;2022-08-19T00:36:47;21.50;99.90
21752;DHT22;11038;50.940;20.564;2022-08-19T00:38:19;21.50;99.90
21752;DHT22;11038;50.940;20.564;2022-08-19T00:40:08;21.50;99.90
21752;DHT22;11038;50.940;20.564;2022-08-19T00:41:44;21.50;99.90
21752;DHT22;11038;50.940;20.564;2022-08-19T00:43:21;21.50;99.90
21752;DHT22;11038;50.940;20.564;2022-08-19T00:44:55;21.50;99.90
21752;DHT22;11038;50.940;20.564;2022-08-19T00:46:27;21.60;99.90
21752;DHT22;11038;50.940;20.564;2022-08-19T00:48:01;21.60;99.90
21752;DHT22;11038;50.940;20.564;2022-08-19T00:49:47;21.50;99.90
21752;DHT22;11038;50.940;20.564;2022-08-19T00:51:24;21.40;99.90
21752;DHT22;11038;50.940;20.564;2022-08-19T00:52:59;21.40;99.90
21752;DHT22;11038;50.940;20.564;2022-08-19T00:54:36;21.40;99.90
21752;DHT22;11038;50.940;20.564;2022-08-19T00:56:10;21.40;99.90
21752;DHT22;11038;50.940;20.564;2022-08-19T00:57:44;21.40;99.90
21752;DHT22;11038;50.940;20.564;2022-08-19T00:59:20;21.50;99.90
21752;DHT22;11038;50.940;20.564;2022-08-19T01:01:12;21.40;99.90
21752;DHT22;11038;50.940;20.564;2022-08-19T01:02:45;21.50;99.90
21752;DHT22;11038;50.940;20.564;2022-08-19T01:04:17;21.50;99.90
21752;DHT22;11038;50.940;20.564;2022-08-19T01:05:50;21.40;99.90
21752;DHT22;11038;50.940;20.564;2022-08-19T01:07:25;21.40;99.90
21752;DHT22;11038;50.940;20.564;2022-08-19T01:08:58;21.40;99.90
21752;DHT22;11038;50.940;20.564;2022-08-19T01:10:31;21.50;99.90
21752;DHT22;11038;50.940;20.564;2022-08-19T01:12:10;21.40;99.90
21752;DHT22;11038;50.940;20.564;2022-08-19T01:13:43;21.40;99.90
21752;DHT22;11038;50.940;20.564;2022-08-19T01:15:23;21.40;99.90
21752;DHT22;11038;50.940;20.564;2022-08-19T01:16:58;21.40;99.90
21752;DHT22;11038;50.940;20.564;2022-08-19T01:18:32;21.40;99.90
21752;DHT22;11038;50.940;20.564;2022-08-19T01:20:11;21.40;99.90
21752;DHT22;11038;50.940;20.564;2022-08-19T01:21:47;21.40;99.90
21752;DHT22;11038;50.940;20.564;2022-08-19T01:23:27;21.40;99.90
21752;DHT22;11038;50.940;20.564;2022-08-19T01:25:15;21.40;99.90
21752;DHT22;11038;50.940;20.564;2022-08-19T01:26:49;21.40;99.90
21752;DHT22;11038;50.940;20.564;2022-08-19T01:28:23;21.30;99.90
21752;DHT22;11038;50.940;20.564;2022-08-19T01:30:13;21.30;99.90
21752;DHT22;11038;50.940;20.564;2022-08-19T01:31:47;21.40;99.90
21752;DHT22;11038;50.940;20.564;2022-08-19T01:33:20;21.30;99.90
21752;DHT22;11038;50.940;20.564;2022-08-19T01:34:53;21.30;99.90
21752;DHT22;11038;50.940;20.564;2022-08-19T01:38:06;21.30;99.90
21752;DHT22;11038;50.940;20.564;2022-08-19T01:39:43;21.30;99.90
21752;DHT22;11038;50.940;20.564;2022-08-19T01:41:15;21.30;99.90
21752;DHT22;11038;50.940;20.564;2022-08-19T01:42:49;21.20;99.90
21752;DHT22;11038;50.940;20.564;2022-08-19T01:44:22;21.20;99.90
21752;DHT22;11038;50.940;20.564;2022-08-19T01:45:55;21.20;99.90
21752;DHT22;11038;50.940;20.564;2022-08-19T01:47:27;21.30;99.90
21752;DHT22;11038;50.940;20.564;2022-08-19T01:49:00;21.20;99.90
21752;DHT22;11038;50.940;20.564;2022-08-19T01:50:33;21.30;99.90
21752;DHT22;11038;50.940;20.564;2022-08-19T01:52:07;21.20;99.90
21752;DHT22;11038;50.940;20.564;2022-08-19T01:53:39;21.30;99.90
21752;DHT22;11038;50.940;20.564;2022-08-19T01:55:14;21.20;99.90
21752;DHT22;11038;50.940;20.564;2022-08-19T01:56:51;21.20;99.90
21752;DHT22;11038;50.940;20.564;2022-08-19T01:58:27;21.30;99.90
21752;DHT22;11038;50.940;20.564;2022-08-19T02:00:05;21.30;99.90
21752;DHT22;11038;50.940;20.564;2022-08-19T02:01:40;21.30;99.90
21752;DHT22;11038;50.940;20.564;2022-08-19T02:03:13;21.30;99.90
21752;DHT22;11038;50.940;20.564;2022-08-19T02:04:45;21.30;99.90
21752;DHT22;11038;50.940;20.564;2022-08-19T02:06:19;21.30;99.90
21752;DHT22;11038;50.940;20.564;2022-08-19T02:07:58;21.40;99.90
21752;DHT22;11038;50.940;20.564;2022-08-19T02:09:31;21.40;99.90
21752;DHT22;11038;50.940;20.564;2022-08-19T02:11:04;21.40;99.90
21752;DHT22;11038;50.940;20.564;2022-08-19T02:12:37;21.40;99.90
21752;DHT22;11038;50.940;20.564;2022-08-19T02:14:10;21.50;99.90
21752;DHT22;11038;50.940;20.564;2022-08-19T02:15:42;21.50;99.90
21752;DHT22;11038;50.940;20.564;2022-08-19T02:17:14;21.50;99.90
21752;DHT22;11038;50.940;20.564;2022-08-19T02:18:47;21.50;99.90
21752;DHT22;11038;50.940;20.564;2022-08-19T02:20:22;21.60;99.90
21752;DHT22;11038;50.940;20.564;2022-08-19T02:21:55;21.50;99.90
21752;DHT22;11038;50.940;20.564;2022-08-19T02:23:28;21.50;99.90
21752;DHT22;11038;50.940;20.564;2022-08-19T02:25:00;21.50;99.90
21752;DHT22;11038;50.940;20.564;2022-08-19T02:26:32;21.50;99.90
21752;DHT22;11038;50.940;20.564;2022-08-19T02:28:05;21.50;99.90
21752;DHT22;11038;50.940;20.564;2022-08-19T02:29:38;21.50;99.90
21752;DHT22;11038;50.940;20.564;2022-08-19T02:31:11;21.50;99.90
21752;DHT22;11038;50.940;20.564;2022-08-19T02:32:46;21.50;99.90
21752;DHT22;11038;50.940;20.564;2022-08-19T02:34:18;21.60;99.90
21752;DHT22;11038;50.940;20.564;2022-08-19T02:35:51;21.50;99.90
21752;DHT22;11038;50.940;20.564;2022-08-19T02:37:23;21.50;99.90
21752;DHT22;11038;50.940;20.564;2022-08-19T02:39:14;21.50;99.90
21752;DHT22;11038;50.940;20.564;2022-08-19T02:40:50;21.50;99.90
21752;DHT22;11038;50.940;20.564;2022-08-19T02:42:30;21.50;99.90
21752;DHT22;11038;50.940;20.564;2022-08-19T02:44:03;21.50;99.90
21752;DHT22;11038;50.940;20.564;2022-08-19T02:45:56;21.40;99.90
21752;DHT22;11038;50.940;20.564;2022-08-19T02:47:28;21.40;99.90
21752;DHT22;11038;50.940;20.564;2022-08-19T02:49:02;21.40;99.90
21752;DHT22;11038;50.940;20.564;2022-08-19T02:50:38;21.40;99.90
21752;DHT22;11038;50.940;20.564;2022-08-19T02:52:24;21.50;99.90
21752;DHT22;11038;50.940;20.564;2022-08-19T02:53:57;21.50;99.90
21752;DHT22;11038;50.940;20.564;2022-08-19T02:55:30;21.50;99.90
21752;DHT22;11038;50.940;20.564;2022-08-19T02:57:17;21.50;99.90
21752;DHT22;11038;50.940;20.564;2022-08-19T02:58:49;21.50;99.90
21752;DHT22;11038;50.940;20.564;2022-08-19T03:00:23;21.60;99.90
21752;DHT22;11038;50.940;20.564;2022-08-19T03:01:57;21.60;99.90
21752;DHT22;11038;50.940;20.564;2022-08-19T03:03:29;21.70;99.90
21752;DHT22;11038;50.940;20.564;2022-08-19T03:05:02;21.70;99.90
21752;DHT22;11038;50.940;20.564;2022-08-19T03:06:37;21.70;99.90
21752;DHT22;11038;50.940;20.564;2022-08-19T03:08:11;21.80;99.90
21752;DHT22;11038;50.940;20.564;2022-08-19T03:09:44;21.80;99.90
21752;DHT22;11038;50.940;20.564;2022-08-19T03:11:27;21.80;99.90
21752;DHT22;11038;50.940;20.564;2022-08-19T03:13:01;21.80;99.90
21752;DHT22;11038;50.940;20.564;2022-08-19T03:14:35;21.70;99.90
21752;DHT22;11038;50.940;20.564;2022-08-19T03:16:08;21.80;99.90
21752;DHT22;11038;50.940;20.564;2022-08-19T03:17:41;21.80;99.90
21752;DHT22;11038;50.940;20.564;2022-08-19T03:19:15;21.90;99.90
21752;DHT22;11038;50.940;20.564;2022-08-19T03:20:50;21.80;99.90
21752;DHT22;11038;50.940;20.564;2022-08-19T03:22:24;21.80;99.90
21752;DHT22;11038;50.940;20.564;2022-08-19T03:23:58;21.80;99.90
21752;DHT22;11038;50.940;20.564;2022-08-19T03:25:37;21.80;99.90
21752;DHT22;11038;50.940;20.564;2022-08-19T03:27:14;21.90;99.90
21752;DHT22;11038;50.940;20.564;2022-08-19T03:28:47;21.90;99.90
21752;DHT22;11038;50.940;20.564;2022-08-19T03:30:29;21.90;99.90
21752;DHT22;11038;50.940;20.564;2022-08-19T03:32:04;21.80;99.90
21752;DHT22;11038;50.940;20.564;2022-08-19T03:33:37;21.90;99.90
21752;DHT22;11038;50.940;20.564;2022-08-19T03:35:10;21.90;99.90
21752;DHT22;11038;50.940;20.564;2022-08-19T03:36:42;21.90;99.90
21752;DHT22;11038;50.940;20.564;2022-08-19T03:38:15;21.90;99.90
21752;DHT22;11038;50.940;20.564;2022-08-19T03:39:47;21.90;99.90
21752;DHT22;11038;50.940;20.564;2022-08-19T03:41:29;21.90;99.90
21752;DHT22;11038;50.940;20.564;2022-08-19T03:43:15;21.90;99.90
21752;DHT22;11038;50.940;20.564;2022-08-19T03:44:50;21.90;99.90
21752;DHT22;11038;50.940;20.564;2022-08-19T03:46:27;22.00;99.90
21752;DHT22;11038;50.940;20.564;2022-08-19T03:48:01;22.10;99.90
21752;DHT22;11038;50.940;20.564;2022-08-19T03:49:33;22.10;99.90
21752;DHT22;11038;50.940;20.564;2022-08-19T03:51:07;22.20;99.90
21752;DHT22;11038;50.940;20.564;2022-08-19T03:53:01;22.30;99.90
21752;DHT22;11038;50.940;20.564;2022-08-19T03:54:34;22.30;99.90
21752;DHT22;11038;50.940;20.564;2022-08-19T03:56:07;22.40;99.90
21752;DHT22;11038;50.940;20.564;2022-08-19T03:57:41;22.40;99.90
21752;DHT22;11038;50.940;20.564;2022-08-19T03:59:15;22.50;99.90
21752;DHT22;11038;50.940;20.564;2022-08-19T04:00:49;22.40;99.90
21752;DHT22;11038;50.940;20.564;2022-08-19T04:02:21;22.30;99.90
21752;DHT22;11038;50.940;20.564;2022-08-19T04:03:53;22.40;99.90
21752;DHT22;11038;50.940;20.564;2022-08-19T04:05:28;22.30;99.90
21752;DHT22;11038;50.940;20.564;2022-08-19T04:07:01;22.40;99.90
21752;DHT22;11038;50.940;20.564;2022-08-19T04:08:34;22.60;99.90
21752;DHT22;11038;50.940;20.564;2022-08-19T04:10:06;22.60;99.90
21752;DHT22;11038;50.940;20.564;2022-08-19T04:11:43;22.60;99.90
21752;DHT22;11038;50.940;20.564;2022-08-19T04:13:17;22.80;99.90
21752;DHT22;11038;50.940;20.564;2022-08-19T04:14:50;22.80;99.90
21752;DHT22;11038;50.940;20.564;2022-08-19T04:16:23;22.80;99.90
21752;DHT22;11038;50.940;20.564;2022-08-19T04:18:06;22.70;99.90
21752;DHT22;11038;50.940;20.564;2022-08-19T04:19:39;22.70;99.90
21752;DHT22;11038;50.940;20.564;2022-08-19T04:21:16;22.70;99.90
21752;DHT22;11038;50.940;20.564;2022-08-19T04:22:50;22.70;99.90
21752;DHT22;11038;50.940;20.564;2022-08-19T04:24:22;22.70;99.90
21752;DHT22;11038;50.940;20.564;2022-08-19T04:25:55;22.70;99.90
21752;DHT22;11038;50.940;20.564;2022-08-19T04:27:28;22.70;99.90
21752;DHT22;11038;50.940;20.564;2022-08-19T04:29:02;22.70;99.90
21752;DHT22;11038;50.940;20.564;2022-08-19T04:30:44;22.70;99.90
21752;DHT22;11038;50.940;20.564;2022-08-19T04:32:19;22.60;99.90
21752;DHT22;11038;50.940;20.564;2022-08-19T04:33:55;22.70;99.90
21752;DHT22;11038;50.940;20.564;2022-08-19T04:35:34;22.80;99.90
21752;DHT22;11038;50.940;20.564;2022-08-19T04:37:07;22.90;99.90
21752;DHT22;11038;50.940;20.564;2022-08-19T04:38:44;23.00;99.90
21752;DHT22;11038;50.940;20.564;2022-08-19T04:40:16;23.00;99.90
21752;DHT22;11038;50.940;20.564;2022-08-19T04:42:07;23.10;99.90
21752;DHT22;11038;50.940;20.564;2022-08-19T04:44:02;23.20;99.90
21752;DHT22;11038;50.940;20.564;2022-08-19T04:45:35;23.30;99.90
21752;DHT22;11038;50.940;20.564;2022-08-19T04:47:14;23.20;99.90
21752;DHT22;11038;50.940;20.564;2022-08-19T04:48:51;23.40;99.90
21752;DHT22;11038;50.940;20.564;2022-08-19T04:50:25;23.40;99.90
21752;DHT22;11038;50.940;20.564;2022-08-19T04:51:58;23.60;99.90
21752;DHT22;11038;50.940;20.564;2022-08-19T04:53:31;23.70;99.90
21752;DHT22;11038;50.940;20.564;2022-08-19T04:55:09;23.70;99.90
21752;DHT22;11038;50.940;20.564;2022-08-19T04:56:42;23.70;99.90
21752;DHT22;11038;50.940;20.564;2022-08-19T04:58:15;23.80;99.90
21752;DHT22;11038;50.940;20.564;2022-08-19T04:59:49;23.90;99.90
21752;DHT22;11038;50.940;20.564;2022-08-19T05:01:27;24.00;99.90
21752;DHT22;11038;50.940;20.564;2022-08-19T05:03:01;24.00;99.90
21752;DHT22;11038;50.940;20.564;2022-08-19T05:04:38;24.00;99.90
21752;DHT22;11038;50.940;20.564;2022-08-19T05:06:12;24.00;99.90
21752;DHT22;11038;50.940;20.564;2022-08-19T05:07:45;24.20;99.90
21752;DHT22;11038;50.940;20.564;2022-08-19T05:09:17;24.30;99.90
21752;DHT22;11038;50.940;20.564;2022-08-19T05:10:51;24.30;99.90
21752;DHT22;11038;50.940;20.564;2022-08-19T05:12:24;24.30;99.90
21752;DHT22;11038;50.940;20.564;2022-08-19T05:14:00;24.50;99.90
21752;DHT22;11038;50.940;20.564;2022-08-19T05:15:33;24.70;99.90
21752;DHT22;11038;50.940;20.564;2022-08-19T05:17:06;24.70;99.90
21752;DHT22;11038;50.940;20.564;2022-08-19T05:18:58;24.70;99.90
21752;DHT22;11038;50.940;20.564;2022-08-19T05:20:50;24.90;99.90
21752;DHT22;11038;50.940;20.564;2022-08-19T05:22:41;25.10;99.90
21752;DHT22;11038;50.940;20.564;2022-08-19T05:24:15;24.80;99.90
21752;DHT22;11038;50.940;20.564;2022-08-19T05:25:49;24.90;99.90
21752;DHT22;11038;50.940;20.564;2022-08-19T05:27:24;24.80;99.90
21752;DHT22;11038;50.940;20.564;2022-08-19T05:28:56;24.90;99.90
21752;DHT22;11038;50.940;20.564;2022-08-19T05:30:28;25.00;99.90
21752;DHT22;11038;50.940;20.564;2022-08-19T05:32:17;25.00;99.90
21752;DHT22;11038;50.940;20.564;2022-08-19T05:33:50;25.00;99.90
21752;DHT22;11038;50.940;20.564;2022-08-19T05:35:22;25.10;99.90
21752;DHT22;11038;50.940;20.564;2022-08-19T05:36:56;24.80;99.90
21752;DHT22;11038;50.940;20.564;2022-08-19T05:38:30;24.90;99.90
21752;DHT22;11038;50.940;20.564;2022-08-19T05:40:02;24.70;99.90
21752;DHT22;11038;50.940;20.564;2022-08-19T05:41:35;24.90;99.90
21752;DHT22;11038;50.940;20.564;2022-08-19T05:43:12;24.90;99.90
21752;DHT22;11038;50.940;20.564;2022-08-19T05:44:47;25.10;99.90
21752;DHT22;11038;50.940;20.564;2022-08-19T05:46:21;25.10;99.90
21752;DHT22;11038;50.940;20.564;2022-08-19T05:47:59;24.90;99.90
21752;DHT22;11038;50.940;20.564;2022-08-19T05:49:31;24.80;99.90
21752;DHT22;11038;50.940;20.564;2022-08-19T05:51:05;24.80;99.90
21752;DHT22;11038;50.940;20.564;2022-08-19T05:52:40;24.80;99.90
21752;DHT22;11038;50.940;20.564;2022-08-19T05:54:20;24.80;99.90
21752;DHT22;11038;50.940;20.564;2022-08-19T05:55:54;24.60;99.90
21752;DHT22;11038;50.940;20.564;2022-08-19T05:57:28;24.70;99.90
21752;DHT22;11038;50.940;20.564;2022-08-19T05:59:02;24.60;99.90
21752;DHT22;11038;50.940;20.564;2022-08-19T06:00:35;24.60;99.90
21752;DHT22;11038;50.940;20.564;2022-08-19T06:02:08;24.60;99.90
21752;DHT22;11038;50.940;20.564;2022-08-19T06:03:40;24.40;99.90
21752;DHT22;11038;50.940;20.564;2022-08-19T06:05:14;24.60;99.90
21752;DHT22;11038;50.940;20.564;2022-08-19T06:06:46;24.70;99.90
21752;DHT22;11038;50.940;20.564;2022-08-19T06:08:20;24.80;99.90
21752;DHT22;11038;50.940;20.564;2022-08-19T06:10:06;24.90;99.90
21752;DHT22;11038;50.940;20.564;2022-08-19T06:11:41;24.90;99.90
21752;DHT22;11038;50.940;20.564;2022-08-19T06:13:15;25.00;99.90
21752;DHT22;11038;50.940;20.564;2022-08-19T06:14:47;25.10;99.90
21752;DHT22;11038;50.940;20.564;2022-08-19T06:16:32;25.20;99.90
21752;DHT22;11038;50.940;20.564;2022-08-19T06:18:07;25.30;99.90
21752;DHT22;11038;50.940;20.564;2022-08-19T06:19:39;25.30;99.90
21752;DHT22;11038;50.940;20.564;2022-08-19T06:21:12;25.30;99.90
21752;DHT22;11038;50.940;20.564;2022-08-19T06:22:45;25.30;99.90
21752;DHT22;11038;50.940;20.564;2022-08-19T06:24:22;25.50;99.90
21752;DHT22;11038;50.940;20.564;2022-08-19T06:25:55;25.70;99.90
21752;DHT22;11038;50.940;20.564;2022-08-19T06:27:28;25.90;99.90
21752;DHT22;11038;50.940;20.564;2022-08-19T06:29:03;25.90;99.90
21752;DHT22;11038;50.940;20.564;2022-08-19T06:30:38;26.00;99.90
21752;DHT22;11038;50.940;20.564;2022-08-19T06:32:10;26.10;99.90
21752;DHT22;11038;50.940;20.564;2022-08-19T06:33:43;26.30;99.90
21752;DHT22;11038;50.940;20.564;2022-08-19T06:35:16;26.50;99.90
21752;DHT22;11038;50.940;20.564;2022-08-19T06:36:50;26.30;99.90
21752;DHT22;11038;50.940;20.564;2022-08-19T06:38:23;26.40;99.90
21752;DHT22;11038;50.940;20.564;2022-08-19T06:39:55;26.20;99.90
21752;DHT22;11038;50.940;20.564;2022-08-19T06:41:28;26.40;99.90
21752;DHT22;11038;50.940;20.564;2022-08-19T06:43:02;26.40;98.40
21752;DHT22;11038;50.940;20.564;2022-08-19T06:44:40;26.30;99.30
21752;DHT22;11038;50.940;20.564;2022-08-19T06:46:18;26.30;98.50
21752;DHT22;11038;50.940;20.564;2022-08-19T06:47:52;26.30;99.40
21752;DHT22;11038;50.940;20.564;2022-08-19T06:49:28;26.40;99.30
21752;DHT22;11038;50.940;20.564;2022-08-19T06:51:03;26.30;98.90
21752;DHT22;11038;50.940;20.564;2022-08-19T06:52:39;26.30;98.40
21752;DHT22;11038;50.940;20.564;2022-08-19T06:54:11;26.30;98.90
21752;DHT22;11038;50.940;20.564;2022-08-19T06:55:51;26.50;99.90
21752;DHT22;11038;50.940;20.564;2022-08-19T06:57:32;26.50;99.20
21752;DHT22;11038;50.940;20.564;2022-08-19T06:59:12;26.50;98.00
21752;DHT22;11038;50.940;20.564;2022-08-19T07:00:48;26.50;98.60
21752;DHT22;11038;50.940;20.564;2022-08-19T07:02:20;26.60;98.00
21752;DHT22;11038;50.940;20.564;2022-08-19T07:03:52;26.70;98.00
21752;DHT22;11038;50.940;20.564;2022-08-19T07:05:25;26.70;98.60
21752;DHT22;11038;50.940;20.564;2022-08-19T07:06:59;27.00;99.20
21752;DHT22;11038;50.940;20.564;2022-08-19T07:08:51;27.00;97.30
21752;DHT22;11038;50.940;20.564;2022-08-19T07:10:27;27.00;96.80
21752;DHT22;11038;50.940;20.564;2022-08-19T07:11:59;27.00;96.50
21752;DHT22;11038;50.940;20.564;2022-08-19T07:13:38;27.00;96.20
21752;DHT22;11038;50.940;20.564;2022-08-19T07:15:12;27.10;96.50
21752;DHT22;11038;50.940;20.564;2022-08-19T07:16:44;26.90;94.90
21752;DHT22;11038;50.940;20.564;2022-08-19T07:18:18;26.90;95.60
21752;DHT22;11038;50.940;20.564;2022-08-19T07:19:51;27.10;95.70
21752;DHT22;11038;50.940;20.564;2022-08-19T07:21:26;27.20;96.00
21752;DHT22;11038;50.940;20.564;2022-08-19T07:23:00;27.30;94.80
21752;DHT22;11038;50.940;20.564;2022-08-19T07:24:38;27.60;95.90
21752;DHT22;11038;50.940;20.564;2022-08-19T07:26:23;27.80;95.50
21752;DHT22;11038;50.940;20.564;2022-08-19T07:27:59;27.70;93.00
21752;DHT22;11038;50.940;20.564;2022-08-19T07:29:33;27.70;93.40
21752;DHT22;11038;50.940;20.564;2022-08-19T07:31:07;27.80;92.90
21752;DHT22;11038;50.940;20.564;2022-08-19T07:32:40;27.80;92.50
21752;DHT22;11038;50.940;20.564;2022-08-19T07:34:12;27.90;93.60
21752;DHT22;11038;50.940;20.564;2022-08-19T07:35:47;28.00;93.10
21752;DHT22;11038;50.940;20.564;2022-08-19T07:37:21;27.90;93.60
21752;DHT22;11038;50.940;20.564;2022-08-19T07:38:54;27.90;91.60
21752;DHT22;11038;50.940;20.564;2022-08-19T07:40:26;28.00;91.90
21752;DHT22;11038;50.940;20.564;2022-08-19T07:42:00;28.00;92.50
21752;DHT22;11038;50.940;20.564;2022-08-19T07:43:35;28.10;92.20
21752;DHT22;11038;50.940;20.564;2022-08-19T07:45:07;28.00;91.00
21752;DHT22;11038;50.940;20.564;2022-08-19T07:46:41;27.80;91.60
21752;DHT22;11038;50.940;20.564;2022-08-19T07:48:18;27.90;92.20
21752;DHT22;11038;50.940;20.564;2022-08-19T07:49:50;28.00;92.00
21752;DHT22;11038;50.940;20.564;2022-08-19T07:51:23;27.80;91.40
21752;DHT22;11038;50.940;20.564;2022-08-19T07:53:08;27.90;91.60
21752;DHT22;11038;50.940;20.564;2022-08-19T07:54:40;27.80;91.70
21752;DHT22;11038;50.940;20.564;2022-08-19T07:56:13;27.90;91.30
21752;DHT22;11038;50.940;20.564;2022-08-19T07:57:46;28.20;92.30
21752;DHT22;11038;50.940;20.564;2022-08-19T07:59:19;28.10;90.90
21752;DHT22;11038;50.940;20.564;2022-08-19T08:00:52;28.30;91.60
21752;DHT22;11038;50.940;20.564;2022-08-19T08:02:25;28.40;90.80
21752;DHT22;11038;50.940;20.564;2022-08-19T08:03:57;28.40;92.20
21752;DHT22;11038;50.940;20.564;2022-08-19T08:05:48;28.60;91.80
21752;DHT22;11038;50.940;20.564;2022-08-19T08:07:39;28.80;91.60
21752;DHT22;11038;50.940;20.564;2022-08-19T08:09:31;28.80;89.80
21752;DHT22;11038;50.940;20.564;2022-08-19T08:11:11;28.90;90.20
21752;DHT22;11038;50.940;20.564;2022-08-19T08:12:46;29.00;89.80
21752;DHT22;11038;50.940;20.564;2022-08-19T08:14:43;29.10;88.90
21752;DHT22;11038;50.940;20.564;2022-08-19T08:16:27;29.10;90.30
21752;DHT22;11038;50.940;20.564;2022-08-19T08:18:03;29.10;89.70
21752;DHT22;11038;50.940;20.564;2022-08-19T08:19:35;29.30;87.10
21752;DHT22;11038;50.940;20.564;2022-08-19T08:21:08;29.20;86.20
21752;DHT22;11038;50.940;20.564;2022-08-19T08:22:44;29.30;87.80
21752;DHT22;11038;50.940;20.564;2022-08-19T08:24:35;29.30;87.30
21752;DHT22;11038;50.940;20.564;2022-08-19T08:26:11;29.30;87.50
21752;DHT22;11038;50.940;20.564;2022-08-19T08:27:47;29.40;86.70
21752;DHT22;11038;50.940;20.564;2022-08-19T08:29:28;29.60;87.60
21752;DHT22;11038;50.940;20.564;2022-08-19T08:31:05;29.80;84.70
21752;DHT22;11038;50.940;20.564;2022-08-19T08:32:40;29.80;82.90
21752;DHT22;11038;50.940;20.564;2022-08-19T08:34:13;29.80;85.10
21752;DHT22;11038;50.940;20.564;2022-08-19T08:35:46;29.90;84.90
21752;DHT22;11038;50.940;20.564;2022-08-19T08:37:18;30.00;84.20
21752;DHT22;11038;50.940;20.564;2022-08-19T08:38:51;30.00;84.70
21752;DHT22;11038;50.940;20.564;2022-08-19T08:40:38;30.10;84.90
21752;DHT22;11038;50.940;20.564;2022-08-19T08:42:20;30.30;84.10
21752;DHT22;11038;50.940;20.564;2022-08-19T08:44:04;30.30;84.40
21752;DHT22;11038;50.940;20.564;2022-08-19T08:45:41;30.10;80.10
21752;DHT22;11038;50.940;20.564;2022-08-19T08:47:25;30.10;80.10
21752;DHT22;11038;50.940;20.564;2022-08-19T08:50:33;30.10;80.20
21752;DHT22;11038;50.940;20.564;2022-08-19T08:54:19;30.30;79.30
21752;DHT22;11038;50.940;20.564;2022-08-19T08:55:57;30.30;82.00
21752;DHT22;11038;50.940;20.564;2022-08-19T08:59:33;30.50;78.60
21752;DHT22;11038;50.940;20.564;2022-08-19T09:01:11;30.40;80.00
21752;DHT22;11038;50.940;20.564;2022-08-19T09:02:44;30.60;79.40
21752;DHT22;11038;50.940;20.564;2022-08-19T09:04:22;30.80;79.40
21752;DHT22;11038;50.940;20.564;2022-08-19T09:09:55;30.40;71.70
21752;DHT22;11038;50.940;20.564;2022-08-19T09:15:10;30.70;73.30
21752;DHT22;11038;50.940;20.564;2022-08-19T09:16:45;30.80;72.10
21752;DHT22;11038;50.940;20.564;2022-08-19T09:18:17;30.80;72.60
21752;DHT22;11038;50.940;20.564;2022-08-19T09:19:55;31.10;72.60
21752;DHT22;11038;50.940;20.564;2022-08-19T09:21:40;31.10;69.90
21752;DHT22;11038;50.940;20.564;2022-08-19T09:23:12;31.10;69.20
21752;DHT22;11038;50.940;20.564;2022-08-19T09:24:44;31.00;69.80
21752;DHT22;11038;50.940;20.564;2022-08-19T09:26:17;31.10;68.80
21752;DHT22;11038;50.940;20.564;2022-08-19T09:27:53;31.00;67.50
21752;DHT22;11038;50.940;20.564;2022-08-19T09:29:33;31.20;66.40
21752;DHT22;11038;50.940;20.564;2022-08-19T09:31:05;31.40;67.20
21752;DHT22;11038;50.940;20.564;2022-08-19T09:32:37;31.20;65.40
21752;DHT22;11038;50.940;20.564;2022-08-19T09:34:11;31.10;66.80
21752;DHT22;11038;50.940;20.564;2022-08-19T09:36:01;31.20;67.90
21752;DHT22;11038;50.940;20.564;2022-08-19T09:37:39;31.30;67.70
21752;DHT22;11038;50.940;20.564;2022-08-19T09:39:14;31.20;66.70
21752;DHT22;11038;50.940;20.564;2022-08-19T09:40:48;31.20;64.70
21752;DHT22;11038;50.940;20.564;2022-08-19T09:42:21;31.30;65.30
21752;DHT22;11038;50.940;20.564;2022-08-19T09:44:01;31.60;66.70
21752;DHT22;11038;50.940;20.564;2022-08-19T09:45:33;31.40;64.70
21752;DHT22;11038;50.940;20.564;2022-08-19T09:47:07;31.40;65.90
21752;DHT22;11038;50.940;20.564;2022-08-19T09:48:41;31.60;65.60
21752;DHT22;11038;50.940;20.564;2022-08-19T09:50:13;31.70;65.80
21752;DHT22;11038;50.940;20.564;2022-08-19T09:51:51;31.70;65.10
21752;DHT22;11038;50.940;20.564;2022-08-19T09:53:27;31.70;65.30
21752;DHT22;11038;50.940;20.564;2022-08-19T09:55:06;31.90;65.60
21752;DHT22;11038;50.940;20.564;2022-08-19T09:56:40;31.90;64.60
21752;DHT22;11038;50.940;20.564;2022-08-19T09:58:13;31.70;62.50
21752;DHT22;11038;50.940;20.564;2022-08-19T09:59:45;31.60;63.90
21752;DHT22;11038;50.940;20.564;2022-08-19T10:01:18;31.60;64.60
21752;DHT22;11038;50.940;20.564;2022-08-19T10:02:53;31.60;63.20
21752;DHT22;11038;50.940;20.564;2022-08-19T10:04:25;31.30;64.80
21752;DHT22;11038;50.940;20.564;2022-08-19T10:06:21;31.50;64.30
21752;DHT22;11038;50.940;20.564;2022-08-19T10:08:21;31.90;65.00
21752;DHT22;11038;50.940;20.564;2022-08-19T10:09:58;32.00;65.80